sensor_id;sensor_type;location;lat;lon;timestamp;P1;durP1;ratioP1;P2;durP2;ratioP2
53642;SDS011;39546;45.534;12.048;2022-10-16T00:02:30;32.30;;;26.12;;
53642;SDS011;39546;45.534;12.048;2022-10-16T00:08:32;31.87;;;21.70;;
53642;SDS011;39546;45.534;12.048;2022-10-16T00:14:34;28.58;;;21.40;;
53642;SDS011;39546;45.534;12.048;2022-10-16T00:20:36;33.80;;;21.73;;
53642;SDS011;39546;45.534;12.048;2022-10-16T00:26:38;31.23;;;23.25;;
53642;SDS011;39546;45.534;12.048;2022-10-16T00:32:41;27.08;;;20.50;;
53642;SDS011;39546;45.534;12.048;2022-10-16T00:45:04;32.38;;;22.25;;
53642;SDS011;39546;45.534;12.048;2022-10-16T00:51:06;25.83;;;19.65;;
53642;SDS011;39546;45.534;12.048;2022-10-16T00:57:09;29.50;;;21.60;;
53642;SDS011;39546;45.534;12.048;2022-10-16T01:03:25;35.30;;;24.17;;
53642;SDS011;39546;45.534;12.048;2022-10-16T01:22:04;23.12;;;19.00;;
53642;SDS011;39546;45.534;12.048;2022-10-16T01:28:08;26.80;;;20.83;;
53642;SDS011;39546;45.534;12.048;2022-10-16T01:34:33;39.10;;;22.02;;
53642;SDS011;39546;45.534;12.048;2022-10-16T01:40:41;33.65;;;26.48;;
53642;SDS011;39546;45.534;12.048;2022-10-16T01:46:48;28.77;;;22.75;;
53642;SDS011;39546;45.534;12.048;2022-10-16T01:52:53;29.65;;;20.67;;
53642;SDS011;39546;45.534;12.048;2022-10-16T01:59:17;29.10;;;21.05;;
53642;SDS011;39546;45.534;12.048;2022-10-16T02:05:32;30.05;;;20.58;;
53642;SDS011;39546;45.534;12.048;2022-10-16T02:11:41;25.40;;;17.75;;
53642;SDS011;39546;45.534;12.048;2022-10-16T02:24:10;31.15;;;24.23;;
53642;SDS011;39546;45.534;12.048;2022-10-16T02:36:31;32.45;;;20.35;;
53642;SDS011;39546;45.534;12.048;2022-10-16T02:42:35;24.58;;;19.02;;
53642;SDS011;39546;45.534;12.048;2022-10-16T02:48:38;28.65;;;21.12;;
53642;SDS011;39546;45.534;12.048;2022-10-16T02:54:40;26.60;;;21.98;;
53642;SDS011;39546;45.534;12.048;2022-10-16T03:00:42;24.95;;;20.65;;
53642;SDS011;39546;45.534;12.048;2022-10-16T03:06:44;34.97;;;24.45;;
53642;SDS011;39546;45.534;12.048;2022-10-16T03:12:46;35.33;;;25.65;;
53642;SDS011;39546;45.534;12.048;2022-10-16T03:18:49;28.42;;;22.05;;
53642;SDS011;39546;45.534;12.048;2022-10-16T03:24:51;34.10;;;25.08;;
53642;SDS011;39546;45.534;12.048;2022-10-16T03:30:53;32.47;;;25.20;;
53642;SDS011;39546;45.534;12.048;2022-10-16T03:36:56;31.62;;;24.15;;
53642;SDS011;39546;45.534;12.048;2022-10-16T03:42:58;35.53;;;26.55;;
53642;SDS011;39546;45.534;12.048;2022-10-16T03:49:01;45.58;;;33.13;;
53642;SDS011;39546;45.534;12.048;2022-10-16T03:55:03;44.97;;;34.72;;
53642;SDS011;39546;45.534;12.048;2022-10-16T04:01:06;41.70;;;32.00;;
53642;SDS011;39546;45.534;12.048;2022-10-16T04:07:08;54.20;;;38.53;;
53642;SDS011;39546;45.534;12.048;2022-10-16T04:13:11;47.47;;;34.33;;
53642;SDS011;39546;45.534;12.048;2022-10-16T04:19:13;54.63;;;39.30;;
53642;SDS011;39546;45.534;12.048;2022-10-16T04:25:15;35.47;;;28.02;;
53642;SDS011;39546;45.534;12.048;2022-10-16T04:31:18;41.03;;;32.03;;
53642;SDS011;39546;45.534;12.048;2022-10-16T04:37:24;31.67;;;23.15;;
53642;SDS011;39546;45.534;12.048;2022-10-16T04:43:27;39.03;;;32.30;;
53642;SDS011;39546;45.534;12.048;2022-10-16T04:49:29;28.77;;;23.83;;
53642;SDS011;39546;45.534;12.048;2022-10-16T04:55:31;40.60;;;29.52;;
53642;SDS011;39546;45.534;12.048;2022-10-16T05:01:33;37.92;;;26.37;;
53642;SDS011;39546;45.534;12.048;2022-10-16T05:07:35;36.65;;;30.20;;
53642;SDS011;39546;45.534;12.048;2022-10-16T05:13:37;36.55;;;27.98;;
53642;SDS011;39546;45.534;12.048;2022-10-16T05:19:39;32.97;;;24.33;;
53642;SDS011;39546;45.534;12.048;2022-10-16T05:25:41;37.30;;;25.70;;
53642;SDS011;39546;45.534;12.048;2022-10-16T05:31:43;35.63;;;22.13;;
53642;SDS011;39546;45.534;12.048;2022-10-16T05:37:45;32.58;;;23.67;;
53642;SDS011;39546;45.534;12.048;2022-10-16T05:43:48;31.08;;;20.58;;
53642;SDS011;39546;45.534;12.048;2022-10-16T05:49:50;26.58;;;20.77;;
53642;SDS011;39546;45.534;12.048;2022-10-16T05:55:53;28.90;;;24.15;;
53642;SDS011;39546;45.534;12.048;2022-10-16T06:01:56;30.45;;;18.83;;
53642;SDS011;39546;45.534;12.048;2022-10-16T06:07:58;38.53;;;24.60;;
53642;SDS011;39546;45.534;12.048;2022-10-16T06:14:01;28.33;;;20.73;;
53642;SDS011;39546;45.534;12.048;2022-10-16T06:20:07;42.70;;;27.70;;
53642;SDS011;39546;45.534;12.048;2022-10-16T06:26:10;33.05;;;25.08;;
53642;SDS011;39546;45.534;12.048;2022-10-16T06:32:15;28.75;;;20.27;;
53642;SDS011;39546;45.534;12.048;2022-10-16T06:38:18;28.38;;;20.25;;
53642;SDS011;39546;45.534;12.048;2022-10-16T06:44:20;25.75;;;22.60;;
53642;SDS011;39546;45.534;12.048;2022-10-16T06:50:22;30.42;;;24.20;;
53642;SDS011;39546;45.534;12.048;2022-10-16T07:02:55;33.08;;;26.70;;
53642;SDS011;39546;45.534;12.048;2022-10-16T07:08:58;29.95;;;22.42;;
53642;SDS011;39546;45.534;12.048;2022-10-16T07:15:10;41.10;;;28.90;;
53642;SDS011;39546;45.534;12.048;2022-10-16T07:21:20;33.50;;;25.85;;
53642;SDS011;39546;45.534;12.048;2022-10-16T07:27:23;39.78;;;30.30;;
53642;SDS011;39546;45.534;12.048;2022-10-16T07:33:25;33.33;;;26.37;;
53642;SDS011;39546;45.534;12.048;2022-10-16T07:39:27;40.05;;;29.25;;
53642;SDS011;39546;45.534;12.048;2022-10-16T07:45:30;40.15;;;29.20;;
53642;SDS011;39546;45.534;12.048;2022-10-16T07:51:32;35.65;;;28.62;;
53642;SDS011;39546;45.534;12.048;2022-10-16T07:57:34;40.17;;;31.08;;
53642;SDS011;39546;45.534;12.048;2022-10-16T08:03:36;41.45;;;31.90;;
53642;SDS011;39546;45.534;12.048;2022-10-16T08:09:38;41.70;;;31.02;;
53642;SDS011;39546;45.534;12.048;2022-10-16T08:15:44;49.17;;;33.08;;
53642;SDS011;39546;45.534;12.048;2022-10-16T08:21:47;41.03;;;36.42;;
53642;SDS011;39546;45.534;12.048;2022-10-16T08:27:52;44.30;;;34.45;;
53642;SDS011;39546;45.534;12.048;2022-10-16T08:33:54;32.50;;;26.80;;
53642;SDS011;39546;45.534;12.048;2022-10-16T08:40:24;39.25;;;31.60;;
53642;SDS011;39546;45.534;12.048;2022-10-16T08:52:43;41.20;;;30.52;;
53642;SDS011;39546;45.534;12.048;2022-10-16T08:58:46;45.20;;;33.85;;
53642;SDS011;39546;45.534;12.048;2022-10-16T09:04:54;46.25;;;37.13;;
53642;SDS011;39546;45.534;12.048;2022-10-16T09:11:06;42.50;;;33.45;;
53642;SDS011;39546;45.534;12.048;2022-10-16T09:24:13;46.70;;;31.55;;
53642;SDS011;39546;45.534;12.048;2022-10-16T09:30:21;38.58;;;31.00;;
53642;SDS011;39546;45.534;12.048;2022-10-16T09:36:28;48.53;;;36.28;;
53642;SDS011;39546;45.534;12.048;2022-10-16T09:42:35;44.17;;;32.38;;
53642;SDS011;39546;45.534;12.048;2022-10-16T09:48:44;45.90;;;33.83;;
53642;SDS011;39546;45.534;12.048;2022-10-16T09:54:51;42.03;;;33.33;;
53642;SDS011;39546;45.534;12.048;2022-10-16T10:00:58;31.95;;;27.48;;
53642;SDS011;39546;45.534;12.048;2022-10-16T10:07:03;43.83;;;31.12;;
53642;SDS011;39546;45.534;12.048;2022-10-16T10:13:15;44.05;;;29.23;;
53642;SDS011;39546;45.534;12.048;2022-10-16T10:19:22;37.60;;;30.05;;
53642;SDS011;39546;45.534;12.048;2022-10-16T10:38:51;37.38;;;30.12;;
53642;SDS011;39546;45.534;12.048;2022-10-16T10:57:30;41.55;;;30.50;;
53642;SDS011;39546;45.534;12.048;2022-10-16T11:10:21;39.75;;;29.30;;
53642;SDS011;39546;45.534;12.048;2022-10-16T11:23:00;37.55;;;24.77;;
53642;SDS011;39546;45.534;12.048;2022-10-16T11:29:13;31.92;;;25.48;;
53642;SDS011;39546;45.534;12.048;2022-10-16T11:35:25;31.52;;;24.30;;
53642;SDS011;39546;45.534;12.048;2022-10-16T12:00:26;32.13;;;23.38;;
53642;SDS011;39546;45.534;12.048;2022-10-16T12:12:39;31.83;;;23.45;;
53642;SDS011;39546;45.534;12.048;2022-10-16T12:18:45;31.85;;;24.50;;
53642;SDS011;39546;45.534;12.048;2022-10-16T12:31:24;26.25;;;21.77;;
53642;SDS011;39546;45.534;12.048;2022-10-16T12:37:41;34.78;;;20.58;;
53642;SDS011;39546;45.534;12.048;2022-10-16T12:44:21;30.25;;;23.55;;
53642;SDS011;39546;45.534;12.048;2022-10-16T12:50:30;27.98;;;21.12;;
53642;SDS011;39546;45.534;12.048;2022-10-16T12:56:43;27.58;;;24.65;;
53642;SDS011;39546;45.534;12.048;2022-10-16T13:03:37;27.02;;;21.08;;
53642;SDS011;39546;45.534;12.048;2022-10-16T13:23:02;23.08;;;20.02;;
53642;SDS011;39546;45.534;12.048;2022-10-16T13:29:05;31.77;;;21.50;;
53642;SDS011;39546;45.534;12.048;2022-10-16T13:35:29;30.10;;;22.90;;
53642;SDS011;39546;45.534;12.048;2022-10-16T13:41:31;26.08;;;21.10;;
53642;SDS011;39546;45.534;12.048;2022-10-16T13:47:33;33.13;;;22.35;;
53642;SDS011;39546;45.534;12.048;2022-10-16T13:53:35;27.98;;;20.77;;
53642;SDS011;39546;45.534;12.048;2022-10-16T13:59:38;30.30;;;20.90;;
53642;SDS011;39546;45.534;12.048;2022-10-16T14:05:43;28.10;;;19.87;;
53642;SDS011;39546;45.534;12.048;2022-10-16T14:11:55;23.25;;;18.45;;
53642;SDS011;39546;45.534;12.048;2022-10-16T14:18:05;30.50;;;19.62;;
53642;SDS011;39546;45.534;12.048;2022-10-16T14:24:11;29.40;;;21.52;;
53642;SDS011;39546;45.534;12.048;2022-10-16T14:36:47;26.30;;;20.62;;
53642;SDS011;39546;45.534;12.048;2022-10-16T14:42:50;25.55;;;20.20;;
53642;SDS011;39546;45.534;12.048;2022-10-16T14:48:55;30.98;;;19.95;;
53642;SDS011;39546;45.534;12.048;2022-10-16T14:55:14;22.62;;;17.45;;
53642;SDS011;39546;45.534;12.048;2022-10-16T15:01:16;24.80;;;19.67;;
53642;SDS011;39546;45.534;12.048;2022-10-16T15:07:19;25.20;;;21.08;;
53642;SDS011;39546;45.534;12.048;2022-10-16T15:19:46;24.27;;;19.52;;
53642;SDS011;39546;45.534;12.048;2022-10-16T15:25:53;31.12;;;21.42;;
53642;SDS011;39546;45.534;12.048;2022-10-16T15:31:56;30.40;;;20.55;;
53642;SDS011;39546;45.534;12.048;2022-10-16T15:44:31;25.23;;;20.10;;
53642;SDS011;39546;45.534;12.048;2022-10-16T15:50:33;26.25;;;20.95;;
53642;SDS011;39546;45.534;12.048;2022-10-16T15:56:35;29.30;;;22.05;;
53642;SDS011;39546;45.534;12.048;2022-10-16T16:02:38;21.58;;;17.67;;
53642;SDS011;39546;45.534;12.048;2022-10-16T16:08:41;29.25;;;19.25;;
53642;SDS011;39546;45.534;12.048;2022-10-16T16:14:43;20.85;;;15.77;;
53642;SDS011;39546;45.534;12.048;2022-10-16T16:20:47;26.05;;;18.92;;
53642;SDS011;39546;45.534;12.048;2022-10-16T16:26:50;23.55;;;16.95;;
53642;SDS011;39546;45.534;12.048;2022-10-16T16:33:12;27.20;;;18.02;;
53642;SDS011;39546;45.534;12.048;2022-10-16T16:39:14;26.08;;;20.77;;
53642;SDS011;39546;45.534;12.048;2022-10-16T16:45:16;27.40;;;20.98;;
53642;SDS011;39546;45.534;12.048;2022-10-16T16:51:18;24.92;;;19.92;;
53642;SDS011;39546;45.534;12.048;2022-10-16T16:57:20;27.10;;;18.65;;
53642;SDS011;39546;45.534;12.048;2022-10-16T17:03:23;21.77;;;18.27;;
53642;SDS011;39546;45.534;12.048;2022-10-16T17:09:25;25.45;;;17.80;;
53642;SDS011;39546;45.534;12.048;2022-10-16T17:15:27;25.27;;;19.77;;
53642;SDS011;39546;45.534;12.048;2022-10-16T17:21:29;21.30;;;17.05;;
53642;SDS011;39546;45.534;12.048;2022-10-16T17:27:33;22.65;;;16.27;;
53642;SDS011;39546;45.534;12.048;2022-10-16T17:33:37;25.33;;;20.33;;
53642;SDS011;39546;45.534;12.048;2022-10-16T17:39:39;26.12;;;18.48;;
53642;SDS011;39546;45.534;12.048;2022-10-16T17:45:42;22.42;;;19.25;;
53642;SDS011;39546;45.534;12.048;2022-10-16T17:51:44;23.98;;;18.83;;
53642;SDS011;39546;45.534;12.048;2022-10-16T17:57:46;26.90;;;17.77;;
53642;SDS011;39546;45.534;12.048;2022-10-16T18:03:53;24.10;;;18.90;;
53642;SDS011;39546;45.534;12.048;2022-10-16T18:09:59;26.40;;;20.55;;
53642;SDS011;39546;45.534;12.048;2022-10-16T18:16:05;22.05;;;19.62;;
53642;SDS011;39546;45.534;12.048;2022-10-16T18:28:14;26.95;;;19.87;;
53642;SDS011;39546;45.534;12.048;2022-10-16T18:34:16;30.17;;;23.98;;
53642;SDS011;39546;45.534;12.048;2022-10-16T18:40:18;27.08;;;20.35;;
53642;SDS011;39546;45.534;12.048;2022-10-16T18:46:22;29.63;;;23.75;;
53642;SDS011;39546;45.534;12.048;2022-10-16T18:52:25;29.42;;;20.75;;
53642;SDS011;39546;45.534;12.048;2022-10-16T18:58:28;26.52;;;22.37;;
53642;SDS011;39546;45.534;12.048;2022-10-16T19:04:30;26.10;;;23.05;;
53642;SDS011;39546;45.534;12.048;2022-10-16T19:10:35;27.02;;;22.25;;
53642;SDS011;39546;45.534;12.048;2022-10-16T19:16:38;30.20;;;25.60;;
53642;SDS011;39546;45.534;12.048;2022-10-16T19:22:42;28.33;;;20.37;;
53642;SDS011;39546;45.534;12.048;2022-10-16T19:29:00;30.80;;;24.33;;
53642;SDS011;39546;45.534;12.048;2022-10-16T19:35:03;25.12;;;21.35;;
53642;SDS011;39546;45.534;12.048;2022-10-16T19:41:10;30.33;;;25.10;;
53642;SDS011;39546;45.534;12.048;2022-10-16T19:47:19;25.25;;;21.65;;
53642;SDS011;39546;45.534;12.048;2022-10-16T19:53:21;28.83;;;21.75;;
53642;SDS011;39546;45.534;12.048;2022-10-16T20:05:52;34.75;;;25.48;;
53642;SDS011;39546;45.534;12.048;2022-10-16T20:11:57;29.05;;;24.15;;
53642;SDS011;39546;45.534;12.048;2022-10-16T20:17:59;29.50;;;20.20;;
53642;SDS011;39546;45.534;12.048;2022-10-16T20:24:02;28.65;;;21.30;;
53642;SDS011;39546;45.534;12.048;2022-10-16T20:30:07;35.63;;;26.42;;
53642;SDS011;39546;45.534;12.048;2022-10-16T20:36:12;29.52;;;23.73;;
53642;SDS011;39546;45.534;12.048;2022-10-16T20:48:40;30.12;;;22.50;;
53642;SDS011;39546;45.534;12.048;2022-10-16T20:54:47;34.42;;;25.92;;
53642;SDS011;39546;45.534;12.048;2022-10-16T21:00:49;27.90;;;22.48;;
53642;SDS011;39546;45.534;12.048;2022-10-16T21:06:52;29.85;;;22.45;;
53642;SDS011;39546;45.534;12.048;2022-10-16T21:12:54;30.67;;;21.50;;
53642;SDS011;39546;45.534;12.048;2022-10-16T21:18:56;26.80;;;21.58;;
53642;SDS011;39546;45.534;12.048;2022-10-16T21:24:59;27.37;;;22.60;;
53642;SDS011;39546;45.534;12.048;2022-10-16T21:31:14;26.67;;;21.83;;
53642;SDS011;39546;45.534;12.048;2022-10-16T21:37:22;29.23;;;21.45;;
53642;SDS011;39546;45.534;12.048;2022-10-16T21:43:24;20.33;;;17.70;;
53642;SDS011;39546;45.534;12.048;2022-10-16T21:49:26;30.52;;;25.58;;
53642;SDS011;39546;45.534;12.048;2022-10-16T21:55:28;24.80;;;20.58;;
53642;SDS011;39546;45.534;12.048;2022-10-16T22:01:30;27.30;;;21.70;;
53642;SDS011;39546;45.534;12.048;2022-10-16T22:07:32;32.28;;;25.75;;
53642;SDS011;39546;45.534;12.048;2022-10-16T22:13:34;23.60;;;20.88;;
53642;SDS011;39546;45.534;12.048;2022-10-16T22:19:37;27.00;;;19.80;;
53642;SDS011;39546;45.534;12.048;2022-10-16T22:25:40;25.45;;;20.45;;
53642;SDS011;39546;45.534;12.048;2022-10-16T22:31:42;27.27;;;22.13;;
53642;SDS011;39546;45.534;12.048;2022-10-16T22:37:45;25.77;;;20.42;;
53642;SDS011;39546;45.534;12.048;2022-10-16T22:43:47;24.60;;;19.65;;
53642;SDS011;39546;45.534;12.048;2022-10-16T22:49:49;21.12;;;17.75;;
53642;SDS011;39546;45.534;12.048;2022-10-16T22:55:51;23.35;;;19.25;;
53642;SDS011;39546;45.534;12.048;2022-10-16T23:01:57;25.92;;;20.88;;
53642;SDS011;39546;45.534;12.048;2022-10-16T23:07:59;27.35;;;22.67;;
53642;SDS011;39546;45.534;12.048;2022-10-16T23:14:01;28.42;;;23.33;;
53642;SDS011;39546;45.534;12.048;2022-10-16T23:20:04;28.98;;;23.77;;
53642;SDS011;39546;45.534;12.048;2022-10-16T23:26:14;30.60;;;25.55;;
53642;SDS011;39546;45.534;12.048;2022-10-16T23:32:17;25.45;;;21.02;;
53642;SDS011;39546;45.534;12.048;2022-10-16T23:38:19;25.80;;;21.40;;
53642;SDS011;39546;45.534;12.048;2022-10-16T23:44:21;31.73;;;23.00;;
53642;SDS011;39546;45.534;12.048;2022-10-16T23:50:23;34.55;;;27.80;;
53642;SDS011;39546;45.534;12.048;2022-10-16T23:56:26;32.17;;;25.05;;
